sensor_id;sensor_type;location;lat;lon;timestamp;P1;durP1;ratioP1;P2;durP2;ratioP2
37425;SDS011;23285;50.180;7.036;2023-05-23T00:02:13;34.17;;;26.70;;
37425;SDS011;23285;50.180;7.036;2023-05-23T00:04:59;34.70;;;25.83;;
37425;SDS011;23285;50.180;7.036;2023-05-23T00:07:47;32.50;;;26.20;;
37425;SDS011;23285;50.180;7.036;2023-05-23T00:10:33;30.50;;;27.33;;
37425;SDS011;23285;50.180;7.036;2023-05-23T00:13:20;29.80;;;25.77;;
37425;SDS011;23285;50.180;7.036;2023-05-23T00:16:06;29.77;;;25.27;;
37425;SDS011;23285;50.180;7.036;2023-05-23T00:18:54;28.83;;;25.87;;
37425;SDS011;23285;50.180;7.036;2023-05-23T00:21:42;30.83;;;26.70;;
37425;SDS011;23285;50.180;7.036;2023-05-23T00:24:31;35.50;;;26.77;;
37425;SDS011;23285;50.180;7.036;2023-05-23T00:27:18;30.10;;;27.10;;
37425;SDS011;23285;50.180;7.036;2023-05-23T00:30:05;31.50;;;28.13;;
37425;SDS011;23285;50.180;7.036;2023-05-23T00:32:52;31.33;;;27.53;;
37425;SDS011;23285;50.180;7.036;2023-05-23T00:35:40;33.77;;;29.43;;
37425;SDS011;23285;50.180;7.036;2023-05-23T00:38:27;31.60;;;28.17;;
37425;SDS011;23285;50.180;7.036;2023-05-23T00:41:13;37.47;;;29.53;;
37425;SDS011;23285;50.180;7.036;2023-05-23T00:44:02;32.33;;;27.63;;
37425;SDS011;23285;50.180;7.036;2023-05-23T00:46:50;33.87;;;27.43;;
37425;SDS011;23285;50.180;7.036;2023-05-23T00:49:37;27.90;;;24.47;;
37425;SDS011;23285;50.180;7.036;2023-05-23T00:52:25;35.80;;;27.70;;
37425;SDS011;23285;50.180;7.036;2023-05-23T00:55:11;25.90;;;23.17;;
37425;SDS011;23285;50.180;7.036;2023-05-23T00:57:57;28.57;;;25.47;;
37425;SDS011;23285;50.180;7.036;2023-05-23T01:00:44;28.87;;;23.83;;
37425;SDS011;23285;50.180;7.036;2023-05-23T01:03:33;28.40;;;23.73;;
37425;SDS011;23285;50.180;7.036;2023-05-23T01:06:20;25.07;;;22.40;;
37425;SDS011;23285;50.180;7.036;2023-05-23T01:09:08;26.47;;;21.83;;
37425;SDS011;23285;50.180;7.036;2023-05-23T01:11:57;26.57;;;23.80;;
37425;SDS011;23285;50.180;7.036;2023-05-23T01:15:01;28.97;;;25.57;;
37425;SDS011;23285;50.180;7.036;2023-05-23T01:17:51;28.90;;;25.73;;
37425;SDS011;23285;50.180;7.036;2023-05-23T01:20:42;29.30;;;24.97;;
37425;SDS011;23285;50.180;7.036;2023-05-23T01:23:49;26.70;;;23.90;;
37425;SDS011;23285;50.180;7.036;2023-05-23T01:27:00;26.63;;;23.93;;
37425;SDS011;23285;50.180;7.036;2023-05-23T01:29:48;32.67;;;27.30;;
37425;SDS011;23285;50.180;7.036;2023-05-23T01:32:41;27.83;;;24.30;;
37425;SDS011;23285;50.180;7.036;2023-05-23T01:35:28;30.33;;;24.83;;
37425;SDS011;23285;50.180;7.036;2023-05-23T01:38:16;25.57;;;22.73;;
37425;SDS011;23285;50.180;7.036;2023-05-23T01:41:03;26.33;;;22.07;;
37425;SDS011;23285;50.180;7.036;2023-05-23T01:43:49;24.40;;;21.13;;
37425;SDS011;23285;50.180;7.036;2023-05-23T01:46:39;26.90;;;21.00;;
37425;SDS011;23285;50.180;7.036;2023-05-23T01:49:28;22.80;;;18.97;;
37425;SDS011;23285;50.180;7.036;2023-05-23T01:52:15;21.43;;;18.73;;
37425;SDS011;23285;50.180;7.036;2023-05-23T01:55:02;24.30;;;18.67;;
37425;SDS011;23285;50.180;7.036;2023-05-23T01:57:54;24.70;;;19.70;;
37425;SDS011;23285;50.180;7.036;2023-05-23T02:00:40;22.37;;;19.20;;
37425;SDS011;23285;50.180;7.036;2023-05-23T02:03:29;21.43;;;16.70;;
37425;SDS011;23285;50.180;7.036;2023-05-23T02:06:15;19.87;;;15.83;;
37425;SDS011;23285;50.180;7.036;2023-05-23T02:09:04;17.03;;;15.10;;
37425;SDS011;23285;50.180;7.036;2023-05-23T02:11:50;17.07;;;15.20;;
37425;SDS011;23285;50.180;7.036;2023-05-23T02:14:37;19.00;;;15.60;;
37425;SDS011;23285;50.180;7.036;2023-05-23T02:17:25;17.80;;;16.00;;
37425;SDS011;23285;50.180;7.036;2023-05-23T02:20:13;17.53;;;15.47;;
37425;SDS011;23285;50.180;7.036;2023-05-23T02:23:02;15.93;;;13.27;;
37425;SDS011;23285;50.180;7.036;2023-05-23T02:25:48;15.70;;;14.03;;
37425;SDS011;23285;50.180;7.036;2023-05-23T02:28:35;19.40;;;15.23;;
37425;SDS011;23285;50.180;7.036;2023-05-23T02:31:21;15.10;;;13.33;;
37425;SDS011;23285;50.180;7.036;2023-05-23T02:34:07;17.67;;;13.57;;
37425;SDS011;23285;50.180;7.036;2023-05-23T02:36:55;20.67;;;15.43;;
37425;SDS011;23285;50.180;7.036;2023-05-23T02:39:42;18.87;;;16.43;;
37425;SDS011;23285;50.180;7.036;2023-05-23T02:42:28;18.43;;;15.10;;
37425;SDS011;23285;50.180;7.036;2023-05-23T02:45:14;20.67;;;16.10;;
37425;SDS011;23285;50.180;7.036;2023-05-23T02:48:01;17.80;;;15.90;;
37425;SDS011;23285;50.180;7.036;2023-05-23T02:50:47;18.57;;;16.33;;
37425;SDS011;23285;50.180;7.036;2023-05-23T02:53:35;17.17;;;15.33;;
37425;SDS011;23285;50.180;7.036;2023-05-23T02:56:21;21.03;;;16.13;;
37425;SDS011;23285;50.180;7.036;2023-05-23T02:59:07;18.40;;;15.77;;
37425;SDS011;23285;50.180;7.036;2023-05-23T03:01:55;16.80;;;15.10;;
37425;SDS011;23285;50.180;7.036;2023-05-23T03:04:41;18.20;;;15.73;;
37425;SDS011;23285;50.180;7.036;2023-05-23T03:07:28;16.93;;;14.97;;
37425;SDS011;23285;50.180;7.036;2023-05-23T03:10:18;17.80;;;15.90;;
37425;SDS011;23285;50.180;7.036;2023-05-23T03:13:05;20.20;;;17.33;;
37425;SDS011;23285;50.180;7.036;2023-05-23T03:15:52;21.47;;;17.03;;
37425;SDS011;23285;50.180;7.036;2023-05-23T03:18:39;17.97;;;16.00;;
37425;SDS011;23285;50.180;7.036;2023-05-23T03:21:26;19.43;;;16.93;;
37425;SDS011;23285;50.180;7.036;2023-05-23T03:24:12;23.43;;;16.67;;
37425;SDS011;23285;50.180;7.036;2023-05-23T03:27:00;17.73;;;15.80;;
37425;SDS011;23285;50.180;7.036;2023-05-23T03:29:46;17.97;;;16.03;;
37425;SDS011;23285;50.180;7.036;2023-05-23T03:32:33;16.17;;;14.03;;
37425;SDS011;23285;50.180;7.036;2023-05-23T03:35:19;16.67;;;13.83;;
37425;SDS011;23285;50.180;7.036;2023-05-23T03:38:05;14.63;;;13.10;;
37425;SDS011;23285;50.180;7.036;2023-05-23T03:40:52;17.97;;;14.33;;
37425;SDS011;23285;50.180;7.036;2023-05-23T03:43:40;15.10;;;13.50;;
37425;SDS011;23285;50.180;7.036;2023-05-23T03:46:26;16.57;;;14.87;;
37425;SDS011;23285;50.180;7.036;2023-05-23T03:49:13;16.73;;;14.90;;
37425;SDS011;23285;50.180;7.036;2023-05-23T03:51:59;17.30;;;15.60;;
37425;SDS011;23285;50.180;7.036;2023-05-23T03:54:46;19.03;;;17.03;;
37425;SDS011;23285;50.180;7.036;2023-05-23T03:57:33;18.70;;;16.43;;
37425;SDS011;23285;50.180;7.036;2023-05-23T04:00:21;18.97;;;17.00;;
37425;SDS011;23285;50.180;7.036;2023-05-23T04:03:08;19.87;;;17.40;;
37425;SDS011;23285;50.180;7.036;2023-05-23T04:05:58;19.47;;;17.07;;
37425;SDS011;23285;50.180;7.036;2023-05-23T04:08:44;15.57;;;13.60;;
37425;SDS011;23285;50.180;7.036;2023-05-23T04:11:31;19.03;;;15.30;;
37425;SDS011;23285;50.180;7.036;2023-05-23T04:14:18;14.73;;;13.23;;
37425;SDS011;23285;50.180;7.036;2023-05-23T04:17:09;14.67;;;13.17;;
37425;SDS011;23285;50.180;7.036;2023-05-23T04:19:56;16.60;;;14.53;;
37425;SDS011;23285;50.180;7.036;2023-05-23T04:22:43;17.90;;;14.63;;
37425;SDS011;23285;50.180;7.036;2023-05-23T04:25:29;16.57;;;14.87;;
37425;SDS011;23285;50.180;7.036;2023-05-23T04:28:30;16.17;;;13.60;;
37425;SDS011;23285;50.180;7.036;2023-05-23T04:31:17;19.10;;;13.00;;
37425;SDS011;23285;50.180;7.036;2023-05-23T04:34:05;14.17;;;12.77;;
37425;SDS011;23285;50.180;7.036;2023-05-23T04:36:56;15.33;;;12.40;;
37425;SDS011;23285;50.180;7.036;2023-05-23T04:39:45;14.90;;;11.30;;
37425;SDS011;23285;50.180;7.036;2023-05-23T04:42:49;11.67;;;10.47;;
37425;SDS011;23285;50.180;7.036;2023-05-23T04:45:47;11.83;;;10.63;;
37425;SDS011;23285;50.180;7.036;2023-05-23T04:48:55;9.50;;;8.27;;
37425;SDS011;23285;50.180;7.036;2023-05-23T04:51:44;8.87;;;7.63;;
37425;SDS011;23285;50.180;7.036;2023-05-23T04:54:40;9.23;;;7.13;;
37425;SDS011;23285;50.180;7.036;2023-05-23T04:57:30;8.27;;;6.70;;
37425;SDS011;23285;50.180;7.036;2023-05-23T05:00:19;6.73;;;6.03;;
37425;SDS011;23285;50.180;7.036;2023-05-23T05:03:05;7.37;;;6.23;;
37425;SDS011;23285;50.180;7.036;2023-05-23T05:05:56;7.33;;;5.53;;
37425;SDS011;23285;50.180;7.036;2023-05-23T05:08:44;6.70;;;5.80;;
37425;SDS011;23285;50.180;7.036;2023-05-23T05:11:31;8.73;;;5.67;;
37425;SDS011;23285;50.180;7.036;2023-05-23T05:14:17;7.20;;;6.30;;
37425;SDS011;23285;50.180;7.036;2023-05-23T05:17:03;6.70;;;6.10;;
37425;SDS011;23285;50.180;7.036;2023-05-23T05:19:58;6.23;;;5.63;;
37425;SDS011;23285;50.180;7.036;2023-05-23T05:22:46;6.90;;;6.10;;
37425;SDS011;23285;50.180;7.036;2023-05-23T05:25:33;9.87;;;7.03;;
37425;SDS011;23285;50.180;7.036;2023-05-23T05:28:21;8.37;;;5.63;;
37425;SDS011;23285;50.180;7.036;2023-05-23T05:31:09;6.07;;;5.47;;
37425;SDS011;23285;50.180;7.036;2023-05-23T05:33:59;6.30;;;5.70;;
37425;SDS011;23285;50.180;7.036;2023-05-23T05:36:45;6.43;;;5.67;;
37425;SDS011;23285;50.180;7.036;2023-05-23T05:39:34;6.30;;;5.67;;
37425;SDS011;23285;50.180;7.036;2023-05-23T05:42:22;7.90;;;5.13;;
37425;SDS011;23285;50.180;7.036;2023-05-23T05:45:09;5.40;;;4.90;;
37425;SDS011;23285;50.180;7.036;2023-05-23T05:47:58;5.70;;;4.53;;
37425;SDS011;23285;50.180;7.036;2023-05-23T05:50:45;4.43;;;4.03;;
37425;SDS011;23285;50.180;7.036;2023-05-23T05:53:31;4.67;;;4.27;;
37425;SDS011;23285;50.180;7.036;2023-05-23T05:56:18;4.33;;;3.93;;
37425;SDS011;23285;50.180;7.036;2023-05-23T05:59:07;4.53;;;3.80;;
37425;SDS011;23285;50.180;7.036;2023-05-23T06:01:56;6.13;;;3.13;;
37425;SDS011;23285;50.180;7.036;2023-05-23T06:04:42;4.93;;;4.40;;
37425;SDS011;23285;50.180;7.036;2023-05-23T06:07:29;6.70;;;4.10;;
37425;SDS011;23285;50.180;7.036;2023-05-23T06:10:15;5.33;;;4.33;;
37425;SDS011;23285;50.180;7.036;2023-05-23T06:13:02;5.13;;;4.73;;
37425;SDS011;23285;50.180;7.036;2023-05-23T06:15:50;5.83;;;4.97;;
37425;SDS011;23285;50.180;7.036;2023-05-23T06:18:37;5.23;;;4.73;;
37425;SDS011;23285;50.180;7.036;2023-05-23T06:21:23;5.20;;;4.70;;
37425;SDS011;23285;50.180;7.036;2023-05-23T06:24:11;6.73;;;4.80;;
37425;SDS011;23285;50.180;7.036;2023-05-23T06:26:59;4.87;;;4.40;;
37425;SDS011;23285;50.180;7.036;2023-05-23T06:29:45;6.90;;;4.67;;
37425;SDS011;23285;50.180;7.036;2023-05-23T06:32:32;5.37;;;4.87;;
37425;SDS011;23285;50.180;7.036;2023-05-23T06:35:20;5.73;;;5.00;;
37425;SDS011;23285;50.180;7.036;2023-05-23T06:38:06;5.00;;;4.50;;
37425;SDS011;23285;50.180;7.036;2023-05-23T06:40:53;6.40;;;5.33;;
37425;SDS011;23285;50.180;7.036;2023-05-23T06:43:39;6.40;;;5.37;;
37425;SDS011;23285;50.180;7.036;2023-05-23T06:46:39;7.43;;;6.43;;
37425;SDS011;23285;50.180;7.036;2023-05-23T06:49:27;7.57;;;6.87;;
37425;SDS011;23285;50.180;7.036;2023-05-23T06:52:14;8.87;;;7.73;;
37425;SDS011;23285;50.180;7.036;2023-05-23T06:55:01;7.93;;;7.20;;
37425;SDS011;23285;50.180;7.036;2023-05-23T06:57:48;9.90;;;8.83;;
37425;SDS011;23285;50.180;7.036;2023-05-23T07:00:37;9.33;;;8.53;;
37425;SDS011;23285;50.180;7.036;2023-05-23T07:03:35;10.97;;;9.30;;
37425;SDS011;23285;50.180;7.036;2023-05-23T07:06:26;9.77;;;8.77;;
37425;SDS011;23285;50.180;7.036;2023-05-23T07:09:12;12.07;;;8.60;;
37425;SDS011;23285;50.180;7.036;2023-05-23T07:11:59;10.67;;;9.57;;
37425;SDS011;23285;50.180;7.036;2023-05-23T07:14:45;9.70;;;8.80;;
37425;SDS011;23285;50.180;7.036;2023-05-23T07:17:32;10.67;;;9.57;;
37425;SDS011;23285;50.180;7.036;2023-05-23T07:20:20;13.47;;;10.03;;
37425;SDS011;23285;50.180;7.036;2023-05-23T07:23:11;11.53;;;9.73;;
37425;SDS011;23285;50.180;7.036;2023-05-23T07:25:58;10.80;;;9.70;;
37425;SDS011;23285;50.180;7.036;2023-05-23T07:28:47;12.63;;;10.10;;
37425;SDS011;23285;50.180;7.036;2023-05-23T07:31:35;11.40;;;9.90;;
37425;SDS011;23285;50.180;7.036;2023-05-23T07:34:21;9.77;;;8.77;;
37425;SDS011;23285;50.180;7.036;2023-05-23T07:37:12;10.53;;;9.17;;
37425;SDS011;23285;50.180;7.036;2023-05-23T07:40:03;10.63;;;9.53;;
37425;SDS011;23285;50.180;7.036;2023-05-23T07:42:49;11.50;;;10.20;;
37425;SDS011;23285;50.180;7.036;2023-05-23T07:45:36;12.53;;;10.67;;
37425;SDS011;23285;50.180;7.036;2023-05-23T07:48:22;11.50;;;10.27;;
37425;SDS011;23285;50.180;7.036;2023-05-23T07:51:10;12.83;;;11.33;;
37425;SDS011;23285;50.180;7.036;2023-05-23T07:53:57;13.87;;;11.67;;
37425;SDS011;23285;50.180;7.036;2023-05-23T07:56:44;12.27;;;10.60;;
37425;SDS011;23285;50.180;7.036;2023-05-23T07:59:32;11.97;;;10.53;;
37425;SDS011;23285;50.180;7.036;2023-05-23T08:02:19;12.40;;;10.30;;
37425;SDS011;23285;50.180;7.036;2023-05-23T08:05:06;11.53;;;10.33;;
37425;SDS011;23285;50.180;7.036;2023-05-23T08:07:54;11.40;;;9.80;;
37425;SDS011;23285;50.180;7.036;2023-05-23T08:10:42;13.73;;;10.17;;
37425;SDS011;23285;50.180;7.036;2023-05-23T08:13:38;12.00;;;10.10;;
37425;SDS011;23285;50.180;7.036;2023-05-23T08:16:44;10.90;;;9.80;;
37425;SDS011;23285;50.180;7.036;2023-05-23T08:19:36;13.27;;;9.87;;
37425;SDS011;23285;50.180;7.036;2023-05-23T08:22:23;14.37;;;10.07;;
37425;SDS011;23285;50.180;7.036;2023-05-23T08:25:10;13.57;;;10.87;;
37425;SDS011;23285;50.180;7.036;2023-05-23T08:27:58;13.13;;;10.30;;
37425;SDS011;23285;50.180;7.036;2023-05-23T08:31:01;11.43;;;10.30;;
37425;SDS011;23285;50.180;7.036;2023-05-23T08:33:48;11.70;;;10.50;;
37425;SDS011;23285;50.180;7.036;2023-05-23T08:36:35;11.93;;;10.57;;
37425;SDS011;23285;50.180;7.036;2023-05-23T08:39:25;12.60;;;10.33;;
37425;SDS011;23285;50.180;7.036;2023-05-23T08:42:31;11.43;;;10.23;;
37425;SDS011;23285;50.180;7.036;2023-05-23T08:45:18;14.27;;;10.30;;
37425;SDS011;23285;50.180;7.036;2023-05-23T08:48:07;13.37;;;10.93;;
37425;SDS011;23285;50.180;7.036;2023-05-23T08:50:59;10.77;;;9.67;;
37425;SDS011;23285;50.180;7.036;2023-05-23T08:53:49;11.77;;;9.77;;
37425;SDS011;23285;50.180;7.036;2023-05-23T08:56:38;12.87;;;10.50;;
37425;SDS011;23285;50.180;7.036;2023-05-23T08:59:26;14.47;;;10.33;;
37425;SDS011;23285;50.180;7.036;2023-05-23T09:02:13;13.10;;;11.07;;
37425;SDS011;23285;50.180;7.036;2023-05-23T09:05:03;11.43;;;10.23;;
37425;SDS011;23285;50.180;7.036;2023-05-23T09:07:50;11.60;;;10.40;;
37425;SDS011;23285;50.180;7.036;2023-05-23T09:10:38;11.20;;;10.17;;
37425;SDS011;23285;50.180;7.036;2023-05-23T09:13:25;11.90;;;9.90;;
37425;SDS011;23285;50.180;7.036;2023-05-23T09:16:15;14.03;;;11.60;;
37425;SDS011;23285;50.180;7.036;2023-05-23T09:19:13;14.57;;;11.20;;
37425;SDS011;23285;50.180;7.036;2023-05-23T09:22:07;11.10;;;9.93;;
37425;SDS011;23285;50.180;7.036;2023-05-23T09:25:06;10.20;;;9.30;;
37425;SDS011;23285;50.180;7.036;2023-05-23T09:27:53;11.87;;;9.93;;
37425;SDS011;23285;50.180;7.036;2023-05-23T09:30:43;10.63;;;9.60;;
37425;SDS011;23285;50.180;7.036;2023-05-23T09:33:38;11.20;;;9.37;;
37425;SDS011;23285;50.180;7.036;2023-05-23T09:36:26;9.43;;;7.90;;
37425;SDS011;23285;50.180;7.036;2023-05-23T09:39:15;9.07;;;8.17;;
37425;SDS011;23285;50.180;7.036;2023-05-23T09:42:01;9.60;;;8.70;;
37425;SDS011;23285;50.180;7.036;2023-05-23T09:44:48;11.70;;;8.60;;
37425;SDS011;23285;50.180;7.036;2023-05-23T09:47:34;11.53;;;9.47;;
37425;SDS011;23285;50.180;7.036;2023-05-23T09:50:21;10.40;;;9.20;;
37425;SDS011;23285;50.180;7.036;2023-05-23T09:53:09;10.83;;;8.87;;
37425;SDS011;23285;50.180;7.036;2023-05-23T09:55:56;12.83;;;8.07;;
37425;SDS011;23285;50.180;7.036;2023-05-23T09:58:45;10.20;;;9.20;;
37425;SDS011;23285;50.180;7.036;2023-05-23T10:01:32;11.00;;;8.73;;
37425;SDS011;23285;50.180;7.036;2023-05-23T10:04:20;11.30;;;9.10;;
37425;SDS011;23285;50.180;7.036;2023-05-23T10:07:10;10.00;;;8.93;;
37425;SDS011;23285;50.180;7.036;2023-05-23T10:10:02;10.73;;;8.90;;
37425;SDS011;23285;50.180;7.036;2023-05-23T10:12:52;9.87;;;8.57;;
37425;SDS011;23285;50.180;7.036;2023-05-23T10:15:40;11.90;;;8.70;;
37425;SDS011;23285;50.180;7.036;2023-05-23T10:18:28;11.23;;;9.23;;
37425;SDS011;23285;50.180;7.036;2023-05-23T10:21:18;10.23;;;9.23;;
37425;SDS011;23285;50.180;7.036;2023-05-23T10:24:07;9.67;;;8.70;;
37425;SDS011;23285;50.180;7.036;2023-05-23T10:26:54;10.67;;;9.67;;
37425;SDS011;23285;50.180;7.036;2023-05-23T10:29:42;10.90;;;9.70;;
37425;SDS011;23285;50.180;7.036;2023-05-23T10:32:29;10.27;;;9.37;;
37425;SDS011;23285;50.180;7.036;2023-05-23T10:35:17;9.20;;;8.30;;
37425;SDS011;23285;50.180;7.036;2023-05-23T10:38:08;10.47;;;9.07;;
37425;SDS011;23285;50.180;7.036;2023-05-23T10:41:00;10.33;;;9.17;;
37425;SDS011;23285;50.180;7.036;2023-05-23T10:43:52;8.70;;;7.80;;
37425;SDS011;23285;50.180;7.036;2023-05-23T10:46:51;9.93;;;8.37;;
37425;SDS011;23285;50.180;7.036;2023-05-23T10:49:38;9.03;;;8.10;;
37425;SDS011;23285;50.180;7.036;2023-05-23T10:52:25;8.80;;;7.60;;
37425;SDS011;23285;50.180;7.036;2023-05-23T10:55:12;8.97;;;7.63;;
37425;SDS011;23285;50.180;7.036;2023-05-23T10:58:11;9.40;;;7.30;;
37425;SDS011;23285;50.180;7.036;2023-05-23T11:00:59;7.23;;;6.53;;
37425;SDS011;23285;50.180;7.036;2023-05-23T11:03:50;7.93;;;7.13;;
37425;SDS011;23285;50.180;7.036;2023-05-23T11:06:37;9.03;;;6.10;;
37425;SDS011;23285;50.180;7.036;2023-05-23T11:09:26;6.43;;;5.67;;
37425;SDS011;23285;50.180;7.036;2023-05-23T11:12:12;6.53;;;5.70;;
37425;SDS011;23285;50.180;7.036;2023-05-23T11:14:58;5.53;;;5.03;;
37425;SDS011;23285;50.180;7.036;2023-05-23T11:17:48;5.97;;;5.23;;
37425;SDS011;23285;50.180;7.036;2023-05-23T11:20:37;5.83;;;4.47;;
37425;SDS011;23285;50.180;7.036;2023-05-23T11:23:23;5.87;;;4.67;;
37425;SDS011;23285;50.180;7.036;2023-05-23T11:26:28;4.73;;;4.33;;
37425;SDS011;23285;50.180;7.036;2023-05-23T11:29:15;8.20;;;7.20;;
37425;SDS011;23285;50.180;7.036;2023-05-23T11:32:08;11.40;;;9.07;;
37425;SDS011;23285;50.180;7.036;2023-05-23T11:34:57;9.80;;;8.80;;
37425;SDS011;23285;50.180;7.036;2023-05-23T11:37:46;10.23;;;8.43;;
37425;SDS011;23285;50.180;7.036;2023-05-23T11:40:33;11.00;;;9.20;;
37425;SDS011;23285;50.180;7.036;2023-05-23T11:43:21;10.43;;;9.03;;
37425;SDS011;23285;50.180;7.036;2023-05-23T11:46:07;10.53;;;8.47;;
37425;SDS011;23285;50.180;7.036;2023-05-23T11:48:53;10.67;;;8.50;;
37425;SDS011;23285;50.180;7.036;2023-05-23T11:51:40;9.13;;;7.73;;
37425;SDS011;23285;50.180;7.036;2023-05-23T11:54:28;4.60;;;4.20;;
37425;SDS011;23285;50.180;7.036;2023-05-23T11:57:14;4.40;;;4.00;;
37425;SDS011;23285;50.180;7.036;2023-05-23T12:00:01;4.47;;;3.60;;
37425;SDS011;23285;50.180;7.036;2023-05-23T12:02:49;4.23;;;3.27;;
37425;SDS011;23285;50.180;7.036;2023-05-23T12:05:36;3.47;;;2.60;;
37425;SDS011;23285;50.180;7.036;2023-05-23T12:08:23;2.47;;;2.27;;
37425;SDS011;23285;50.180;7.036;2023-05-23T12:11:10;2.77;;;2.57;;
37425;SDS011;23285;50.180;7.036;2023-05-23T12:13:58;5.53;;;3.97;;
37425;SDS011;23285;50.180;7.036;2023-05-23T12:16:49;10.27;;;7.87;;
37425;SDS011;23285;50.180;7.036;2023-05-23T12:19:37;12.90;;;10.00;;
37425;SDS011;23285;50.180;7.036;2023-05-23T12:22:23;13.90;;;11.30;;
37425;SDS011;23285;50.180;7.036;2023-05-23T12:25:10;14.17;;;11.77;;
37425;SDS011;23285;50.180;7.036;2023-05-23T12:27:57;13.13;;;10.33;;
37425;SDS011;23285;50.180;7.036;2023-05-23T12:30:44;12.47;;;10.27;;
37425;SDS011;23285;50.180;7.036;2023-05-23T12:33:32;18.07;;;11.83;;
37425;SDS011;23285;50.180;7.036;2023-05-23T12:36:23;16.10;;;11.73;;
37425;SDS011;23285;50.180;7.036;2023-05-23T12:39:10;17.93;;;12.60;;
37425;SDS011;23285;50.180;7.036;2023-05-23T12:42:05;14.53;;;10.80;;
37425;SDS011;23285;50.180;7.036;2023-05-23T12:44:54;14.07;;;11.13;;
37425;SDS011;23285;50.180;7.036;2023-05-23T12:47:40;18.40;;;10.87;;
37425;SDS011;23285;50.180;7.036;2023-05-23T12:50:27;13.67;;;10.20;;
37425;SDS011;23285;50.180;7.036;2023-05-23T12:53:14;11.70;;;9.33;;
37425;SDS011;23285;50.180;7.036;2023-05-23T12:56:00;13.47;;;10.13;;
37425;SDS011;23285;50.180;7.036;2023-05-23T12:58:47;12.90;;;9.03;;
37425;SDS011;23285;50.180;7.036;2023-05-23T13:01:35;14.57;;;8.20;;
37425;SDS011;23285;50.180;7.036;2023-05-23T13:04:22;21.50;;;7.97;;
37425;SDS011;23285;50.180;7.036;2023-05-23T13:07:08;10.70;;;7.30;;
37425;SDS011;23285;50.180;7.036;2023-05-23T13:09:55;10.10;;;8.00;;
37425;SDS011;23285;50.180;7.036;2023-05-23T13:12:41;12.53;;;9.00;;
37425;SDS011;23285;50.180;7.036;2023-05-23T13:15:28;12.53;;;10.07;;
37425;SDS011;23285;50.180;7.036;2023-05-23T13:18:16;12.50;;;10.23;;
37425;SDS011;23285;50.180;7.036;2023-05-23T13:21:02;14.87;;;11.50;;
37425;SDS011;23285;50.180;7.036;2023-05-23T13:23:49;13.57;;;10.53;;
37425;SDS011;23285;50.180;7.036;2023-05-23T13:26:35;12.40;;;10.07;;
37425;SDS011;23285;50.180;7.036;2023-05-23T13:29:22;14.90;;;10.67;;
37425;SDS011;23285;50.180;7.036;2023-05-23T13:32:10;12.87;;;9.13;;
37425;SDS011;23285;50.180;7.036;2023-05-23T13:34:57;11.97;;;8.00;;
37425;SDS011;23285;50.180;7.036;2023-05-23T13:37:44;9.93;;;8.27;;
37425;SDS011;23285;50.180;7.036;2023-05-23T13:40:30;9.47;;;7.03;;
37425;SDS011;23285;50.180;7.036;2023-05-23T13:43:16;10.73;;;6.20;;
37425;SDS011;23285;50.180;7.036;2023-05-23T13:46:03;10.10;;;6.90;;
37425;SDS011;23285;50.180;7.036;2023-05-23T13:48:50;10.20;;;5.83;;
37425;SDS011;23285;50.180;7.036;2023-05-23T13:51:37;7.03;;;6.20;;
37425;SDS011;23285;50.180;7.036;2023-05-23T13:54:25;8.30;;;5.87;;
37425;SDS011;23285;50.180;7.036;2023-05-23T13:57:11;5.53;;;4.90;;
37425;SDS011;23285;50.180;7.036;2023-05-23T13:59:58;9.70;;;5.67;;
37425;SDS011;23285;50.180;7.036;2023-05-23T14:02:44;7.53;;;4.43;;
37425;SDS011;23285;50.180;7.036;2023-05-23T14:05:31;6.17;;;5.00;;
37425;SDS011;23285;50.180;7.036;2023-05-23T14:08:18;10.47;;;5.93;;
37425;SDS011;23285;50.180;7.036;2023-05-23T14:11:05;6.67;;;5.33;;
37425;SDS011;23285;50.180;7.036;2023-05-23T14:13:51;7.83;;;4.63;;
37425;SDS011;23285;50.180;7.036;2023-05-23T14:16:37;7.53;;;5.37;;
37425;SDS011;23285;50.180;7.036;2023-05-23T14:19:24;11.87;;;4.97;;
37425;SDS011;23285;50.180;7.036;2023-05-23T14:22:10;10.23;;;5.77;;
37425;SDS011;23285;50.180;7.036;2023-05-23T14:24:57;12.67;;;5.90;;
37425;SDS011;23285;50.180;7.036;2023-05-23T14:27:44;9.50;;;6.10;;
37425;SDS011;23285;50.180;7.036;2023-05-23T14:30:30;12.60;;;6.47;;
37425;SDS011;23285;50.180;7.036;2023-05-23T14:33:17;9.03;;;5.83;;
37425;SDS011;23285;50.180;7.036;2023-05-23T14:36:03;10.70;;;6.47;;
37425;SDS011;23285;50.180;7.036;2023-05-23T14:38:50;9.77;;;6.50;;
37425;SDS011;23285;50.180;7.036;2023-05-23T14:41:38;13.20;;;6.33;;
37425;SDS011;23285;50.180;7.036;2023-05-23T14:44:24;15.43;;;6.57;;
37425;SDS011;23285;50.180;7.036;2023-05-23T14:47:11;12.50;;;5.73;;
37425;SDS011;23285;50.180;7.036;2023-05-23T14:49:57;11.80;;;5.87;;
37425;SDS011;23285;50.180;7.036;2023-05-23T14:52:43;12.00;;;6.27;;
37425;SDS011;23285;50.180;7.036;2023-05-23T14:55:30;7.87;;;5.93;;
37425;SDS011;23285;50.180;7.036;2023-05-23T14:58:17;10.23;;;6.73;;
37425;SDS011;23285;50.180;7.036;2023-05-23T15:01:03;11.70;;;5.67;;
37425;SDS011;23285;50.180;7.036;2023-05-23T15:03:50;9.20;;;6.53;;
37425;SDS011;23285;50.180;7.036;2023-05-23T15:06:37;11.67;;;5.97;;
37425;SDS011;23285;50.180;7.036;2023-05-23T15:09:24;8.47;;;6.10;;
37425;SDS011;23285;50.180;7.036;2023-05-23T15:12:11;12.27;;;5.40;;
37425;SDS011;23285;50.180;7.036;2023-05-23T15:15:00;12.17;;;6.40;;
37425;SDS011;23285;50.180;7.036;2023-05-23T15:17:50;10.87;;;6.53;;
37425;SDS011;23285;50.180;7.036;2023-05-23T15:20:36;9.90;;;5.83;;
37425;SDS011;23285;50.180;7.036;2023-05-23T15:23:22;13.87;;;6.57;;
37425;SDS011;23285;50.180;7.036;2023-05-23T15:26:08;13.97;;;6.63;;
37425;SDS011;23285;50.180;7.036;2023-05-23T15:28:55;8.60;;;5.67;;
37425;SDS011;23285;50.180;7.036;2023-05-23T15:31:43;9.93;;;5.93;;
37425;SDS011;23285;50.180;7.036;2023-05-23T15:34:29;7.90;;;5.10;;
37425;SDS011;23285;50.180;7.036;2023-05-23T15:37:16;10.80;;;6.03;;
37425;SDS011;23285;50.180;7.036;2023-05-23T15:40:02;11.30;;;5.57;;
37425;SDS011;23285;50.180;7.036;2023-05-23T15:42:48;12.30;;;5.60;;
37425;SDS011;23285;50.180;7.036;2023-05-23T15:45:35;9.27;;;5.90;;
37425;SDS011;23285;50.180;7.036;2023-05-23T15:48:23;8.53;;;5.60;;
37425;SDS011;23285;50.180;7.036;2023-05-23T15:51:09;11.07;;;5.60;;
37425;SDS011;23285;50.180;7.036;2023-05-23T15:53:55;10.37;;;5.90;;
37425;SDS011;23285;50.180;7.036;2023-05-23T15:56:42;8.70;;;5.10;;
37425;SDS011;23285;50.180;7.036;2023-05-23T15:59:28;10.37;;;5.17;;
37425;SDS011;23285;50.180;7.036;2023-05-23T16:02:15;12.77;;;4.60;;
37425;SDS011;23285;50.180;7.036;2023-05-23T16:05:03;10.27;;;4.97;;
37425;SDS011;23285;50.180;7.036;2023-05-23T16:07:50;10.57;;;4.73;;
37425;SDS011;23285;50.180;7.036;2023-05-23T16:10:37;9.33;;;5.00;;
37425;SDS011;23285;50.180;7.036;2023-05-23T16:13:23;10.80;;;5.13;;
37425;SDS011;23285;50.180;7.036;2023-05-23T16:16:10;8.67;;;4.83;;
37425;SDS011;23285;50.180;7.036;2023-05-23T16:18:56;11.63;;;4.70;;
37425;SDS011;23285;50.180;7.036;2023-05-23T16:21:43;9.47;;;3.73;;
37425;SDS011;23285;50.180;7.036;2023-05-23T16:24:30;11.87;;;4.40;;
37425;SDS011;23285;50.180;7.036;2023-05-23T16:27:16;6.87;;;4.07;;
37425;SDS011;23285;50.180;7.036;2023-05-23T16:30:02;9.50;;;4.07;;
37425;SDS011;23285;50.180;7.036;2023-05-23T16:32:49;10.60;;;4.97;;
37425;SDS011;23285;50.180;7.036;2023-05-23T16:35:35;10.17;;;4.60;;
37425;SDS011;23285;50.180;7.036;2023-05-23T16:38:23;9.13;;;4.60;;